sensor_id;sensor_type;location;lat;lon;timestamp;pressure;altitude;pressure_sealevel;temperature;humidity
37206;BME280;23099;42.636;23.198;2023-08-30T00:00:22;91215.31;;;19.06;95.46
37206;BME280;23099;42.636;23.198;2023-08-30T00:02:49;91202.59;;;18.78;97.35
37206;BME280;23099;42.636;23.198;2023-08-30T00:05:15;91204.09;;;18.50;100.00
37206;BME280;23099;42.636;23.198;2023-08-30T00:07:42;91193.84;;;18.45;100.00
37206;BME280;23099;42.636;23.198;2023-08-30T00:10:09;91202.56;;;18.36;100.00
37206;BME280;23099;42.636;23.198;2023-08-30T00:12:35;91212.53;;;18.40;100.00
37206;BME280;23099;42.636;23.198;2023-08-30T00:15:03;91210.06;;;18.45;100.00
37206;BME280;23099;42.636;23.198;2023-08-30T00:17:30;91210.28;;;18.51;100.00
37206;BME280;23099;42.636;23.198;2023-08-30T00:19:58;91204.78;;;18.54;99.80
37206;BME280;23099;42.636;23.198;2023-08-30T00:22:24;91192.28;;;18.60;100.00
37206;BME280;23099;42.636;23.198;2023-08-30T00:24:52;91195.63;;;18.64;100.00
37206;BME280;23099;42.636;23.198;2023-08-30T00:27:19;91197.81;;;18.69;99.78
37206;BME280;23099;42.636;23.198;2023-08-30T00:29:45;91199.53;;;18.76;98.22
37206;BME280;23099;42.636;23.198;2023-08-30T00:32:13;91198.47;;;18.74;98.51
37206;BME280;23099;42.636;23.198;2023-08-30T00:34:40;91196.41;;;18.78;98.83
37206;BME280;23099;42.636;23.198;2023-08-30T00:37:06;91202.91;;;18.80;97.65
37206;BME280;23099;42.636;23.198;2023-08-30T00:39:33;91195.03;;;18.86;97.44
37206;BME280;23099;42.636;23.198;2023-08-30T00:42:00;91199.69;;;18.85;97.55
37206;BME280;23099;42.636;23.198;2023-08-30T00:44:30;91201.31;;;18.83;96.54
37206;BME280;23099;42.636;23.198;2023-08-30T00:46:57;91205.84;;;18.73;96.67
37206;BME280;23099;42.636;23.198;2023-08-30T00:49:25;91211.69;;;18.71;96.92
37206;BME280;23099;42.636;23.198;2023-08-30T00:51:51;91218.22;;;18.58;96.42
37206;BME280;23099;42.636;23.198;2023-08-30T00:54:18;91228.28;;;18.57;97.24
37206;BME280;23099;42.636;23.198;2023-08-30T00:56:44;91226.59;;;18.63;97.58
37206;BME280;23099;42.636;23.198;2023-08-30T00:59:11;91218.38;;;18.67;97.62
37206;BME280;23099;42.636;23.198;2023-08-30T01:01:38;91221.00;;;18.70;97.34
37206;BME280;23099;42.636;23.198;2023-08-30T01:04:04;91216.34;;;18.71;97.15
37206;BME280;23099;42.636;23.198;2023-08-30T01:06:32;91213.97;;;18.73;97.10
37206;BME280;23099;42.636;23.198;2023-08-30T01:09:00;91212.00;;;18.74;97.28
37206;BME280;23099;42.636;23.198;2023-08-30T01:11:29;91212.97;;;18.67;97.28
37206;BME280;23099;42.636;23.198;2023-08-30T01:13:58;91221.94;;;18.64;96.95
37206;BME280;23099;42.636;23.198;2023-08-30T01:16:26;91222.19;;;18.69;96.06
37206;BME280;23099;42.636;23.198;2023-08-30T01:18:52;91216.25;;;18.75;95.90
37206;BME280;23099;42.636;23.198;2023-08-30T01:21:22;91233.97;;;18.76;95.05
37206;BME280;23099;42.636;23.198;2023-08-30T01:23:56;91229.31;;;18.76;94.82
37206;BME280;23099;42.636;23.198;2023-08-30T01:26:25;91230.97;;;18.74;94.25
37206;BME280;23099;42.636;23.198;2023-08-30T01:28:54;91228.34;;;18.70;94.25
37206;BME280;23099;42.636;23.198;2023-08-30T01:31:22;91236.56;;;18.66;94.07
37206;BME280;23099;42.636;23.198;2023-08-30T01:33:49;91230.59;;;18.59;95.38
37206;BME280;23099;42.636;23.198;2023-08-30T01:36:16;91226.69;;;18.60;93.76
37206;BME280;23099;42.636;23.198;2023-08-30T01:38:43;91222.47;;;18.59;94.25
37206;BME280;23099;42.636;23.198;2023-08-30T01:41:11;91221.19;;;18.47;93.55
37206;BME280;23099;42.636;23.198;2023-08-30T01:43:38;91218.34;;;18.38;94.29
37206;BME280;23099;42.636;23.198;2023-08-30T01:46:06;91222.03;;;18.31;93.48
37206;BME280;23099;42.636;23.198;2023-08-30T01:48:33;91213.47;;;18.33;94.09
37206;BME280;23099;42.636;23.198;2023-08-30T01:51:00;91210.97;;;18.26;94.88
37206;BME280;23099;42.636;23.198;2023-08-30T01:53:27;91217.84;;;18.14;93.54
37206;BME280;23099;42.636;23.198;2023-08-30T01:55:54;91228.06;;;18.07;93.17
37206;BME280;23099;42.636;23.198;2023-08-30T01:58:20;91226.44;;;18.09;94.14
37206;BME280;23099;42.636;23.198;2023-08-30T02:00:47;91225.69;;;18.09;93.67
37206;BME280;23099;42.636;23.198;2023-08-30T02:03:15;91220.53;;;18.14;93.61
37206;BME280;23099;42.636;23.198;2023-08-30T02:05:43;91221.72;;;18.13;92.50
37206;BME280;23099;42.636;23.198;2023-08-30T02:08:14;91222.66;;;18.07;92.14
37206;BME280;23099;42.636;23.198;2023-08-30T02:10:48;91217.66;;;18.05;92.02
37206;BME280;23099;42.636;23.198;2023-08-30T02:13:17;91218.00;;;18.07;93.12
37206;BME280;23099;42.636;23.198;2023-08-30T02:15:46;91215.56;;;18.13;92.92
37206;BME280;23099;42.636;23.198;2023-08-30T02:18:16;91221.03;;;18.09;91.67
37206;BME280;23099;42.636;23.198;2023-08-30T02:20:42;91212.44;;;17.98;91.54
37206;BME280;23099;42.636;23.198;2023-08-30T02:23:09;91208.31;;;17.93;91.87
37206;BME280;23099;42.636;23.198;2023-08-30T02:25:35;91215.25;;;17.94;92.11
37206;BME280;23099;42.636;23.198;2023-08-30T02:28:02;91213.63;;;17.97;92.05
37206;BME280;23099;42.636;23.198;2023-08-30T02:30:28;91209.84;;;17.94;91.44
37206;BME280;23099;42.636;23.198;2023-08-30T02:32:55;91205.09;;;17.98;91.55
37206;BME280;23099;42.636;23.198;2023-08-30T02:35:23;91206.72;;;17.96;91.37
37206;BME280;23099;42.636;23.198;2023-08-30T02:37:49;91210.59;;;17.95;90.55
37206;BME280;23099;42.636;23.198;2023-08-30T02:40:16;91197.41;;;17.97;90.95
37206;BME280;23099;42.636;23.198;2023-08-30T02:42:42;91197.91;;;17.92;90.87
37206;BME280;23099;42.636;23.198;2023-08-30T02:45:09;91199.84;;;17.91;90.56
37206;BME280;23099;42.636;23.198;2023-08-30T02:47:35;91200.63;;;17.92;89.79
37206;BME280;23099;42.636;23.198;2023-08-30T02:50:02;91200.63;;;17.92;88.91
37206;BME280;23099;42.636;23.198;2023-08-30T02:52:30;91200.63;;;17.92;89.54
37206;BME280;23099;42.636;23.198;2023-08-30T02:54:56;91195.81;;;17.83;88.50
37206;BME280;23099;42.636;23.198;2023-08-30T02:57:23;91199.38;;;17.80;88.83
37206;BME280;23099;42.636;23.198;2023-08-30T02:59:49;91197.09;;;17.79;88.70
37206;BME280;23099;42.636;23.198;2023-08-30T03:02:16;91195.16;;;17.79;88.75
37206;BME280;23099;42.636;23.198;2023-08-30T03:04:42;91196.09;;;17.73;89.03
37206;BME280;23099;42.636;23.198;2023-08-30T03:07:09;91201.16;;;17.71;88.62
37206;BME280;23099;42.636;23.198;2023-08-30T03:09:37;91204.94;;;17.57;88.92
37206;BME280;23099;42.636;23.198;2023-08-30T03:12:04;91209.50;;;17.60;89.17
37206;BME280;23099;42.636;23.198;2023-08-30T03:14:30;91203.06;;;17.54;89.37
37206;BME280;23099;42.636;23.198;2023-08-30T03:16:57;91200.63;;;17.43;88.35
37206;BME280;23099;42.636;23.198;2023-08-30T03:19:23;91202.22;;;17.41;89.52
37206;BME280;23099;42.636;23.198;2023-08-30T03:21:49;91187.97;;;17.40;89.63
37206;BME280;23099;42.636;23.198;2023-08-30T03:24:16;91191.94;;;17.36;89.25
37206;BME280;23099;42.636;23.198;2023-08-30T03:26:44;91187.34;;;17.32;90.11
37206;BME280;23099;42.636;23.198;2023-08-30T03:29:10;91181.19;;;17.32;89.38
37206;BME280;23099;42.636;23.198;2023-08-30T03:31:37;91184.66;;;17.32;88.58
37206;BME280;23099;42.636;23.198;2023-08-30T03:34:03;91179.72;;;17.31;88.34
37206;BME280;23099;42.636;23.198;2023-08-30T03:36:29;91168.91;;;17.31;87.40
37206;BME280;23099;42.636;23.198;2023-08-30T03:38:56;91170.91;;;17.27;87.01
37206;BME280;23099;42.636;23.198;2023-08-30T03:41:22;91163.50;;;17.31;88.09
37206;BME280;23099;42.636;23.198;2023-08-30T03:43:50;91163.31;;;17.38;87.73
37206;BME280;23099;42.636;23.198;2023-08-30T03:46:17;91172.88;;;17.43;86.84
37206;BME280;23099;42.636;23.198;2023-08-30T03:48:43;91178.16;;;17.46;86.51
37206;BME280;23099;42.636;23.198;2023-08-30T03:51:09;91182.38;;;17.47;87.32
37206;BME280;23099;42.636;23.198;2023-08-30T03:53:36;91187.03;;;17.47;86.69
37206;BME280;23099;42.636;23.198;2023-08-30T03:56:02;91196.41;;;17.42;87.58
37206;BME280;23099;42.636;23.198;2023-08-30T03:58:29;91193.59;;;17.46;87.08
37206;BME280;23099;42.636;23.198;2023-08-30T04:00:57;91198.59;;;17.47;87.08
37206;BME280;23099;42.636;23.198;2023-08-30T04:03:24;91190.50;;;17.47;88.00
37206;BME280;23099;42.636;23.198;2023-08-30T04:05:54;91195.06;;;17.50;87.80
37206;BME280;23099;42.636;23.198;2023-08-30T04:08:20;91197.69;;;17.54;89.35
37206;BME280;23099;42.636;23.198;2023-08-30T04:10:47;91199.97;;;17.55;89.48
37206;BME280;23099;42.636;23.198;2023-08-30T04:13:14;91206.47;;;17.58;89.45
37206;BME280;23099;42.636;23.198;2023-08-30T04:15:41;91211.19;;;17.54;90.07
37206;BME280;23099;42.636;23.198;2023-08-30T04:18:09;91220.75;;;17.58;90.57
37206;BME280;23099;42.636;23.198;2023-08-30T04:20:35;91238.63;;;17.52;89.96
37206;BME280;23099;42.636;23.198;2023-08-30T04:23:02;91247.41;;;17.40;91.01
37206;BME280;23099;42.636;23.198;2023-08-30T04:25:29;91266.88;;;17.31;90.89
37206;BME280;23099;42.636;23.198;2023-08-30T04:27:55;91287.47;;;17.25;91.88
37206;BME280;23099;42.636;23.198;2023-08-30T04:34:48;91278.97;;;17.07;92.84
37206;BME280;23099;42.636;23.198;2023-08-30T04:37:15;91304.25;;;16.97;94.31
37206;BME280;23099;42.636;23.198;2023-08-30T04:39:42;91310.47;;;16.94;94.74
37206;BME280;23099;42.636;23.198;2023-08-30T04:42:08;91321.75;;;16.89;97.66
37206;BME280;23099;42.636;23.198;2023-08-30T04:44:35;91323.28;;;16.90;98.97
37206;BME280;23099;42.636;23.198;2023-08-30T04:47:02;91319.28;;;16.98;100.00
37206;BME280;23099;42.636;23.198;2023-08-30T04:49:29;91300.78;;;16.96;100.00
37206;BME280;23099;42.636;23.198;2023-08-30T04:51:57;91293.94;;;16.92;100.00
37206;BME280;23099;42.636;23.198;2023-08-30T04:54:23;91298.03;;;17.00;100.00
37206;BME280;23099;42.636;23.198;2023-08-30T04:56:50;91283.25;;;17.05;100.00
37206;BME280;23099;42.636;23.198;2023-08-30T04:59:17;91271.50;;;17.15;100.00
37206;BME280;23099;42.636;23.198;2023-08-30T05:01:44;91273.19;;;17.25;100.00
37206;BME280;23099;42.636;23.198;2023-08-30T05:04:10;91262.56;;;17.34;100.00
37206;BME280;23099;42.636;23.198;2023-08-30T05:06:37;91272.47;;;17.41;100.00
37206;BME280;23099;42.636;23.198;2023-08-30T05:09:05;91259.88;;;17.34;100.00
37206;BME280;23099;42.636;23.198;2023-08-30T05:11:32;91260.97;;;17.37;100.00
37206;BME280;23099;42.636;23.198;2023-08-30T05:13:58;91254.31;;;17.41;100.00
37206;BME280;23099;42.636;23.198;2023-08-30T05:16:25;91254.66;;;17.43;100.00
37206;BME280;23099;42.636;23.198;2023-08-30T05:18:52;91250.94;;;17.37;100.00
37206;BME280;23099;42.636;23.198;2023-08-30T05:21:18;91252.72;;;17.44;100.00
37206;BME280;23099;42.636;23.198;2023-08-30T05:23:45;91256.19;;;17.44;100.00
37206;BME280;23099;42.636;23.198;2023-08-30T05:26:14;91260.56;;;17.38;100.00
37206;BME280;23099;42.636;23.198;2023-08-30T05:28:42;91256.91;;;17.28;100.00
37206;BME280;23099;42.636;23.198;2023-08-30T05:31:08;91254.22;;;17.28;100.00
37206;BME280;23099;42.636;23.198;2023-08-30T05:33:35;91252.28;;;17.29;100.00
37206;BME280;23099;42.636;23.198;2023-08-30T05:36:02;91256.41;;;17.33;100.00
37206;BME280;23099;42.636;23.198;2023-08-30T05:38:29;91256.16;;;17.28;100.00
37206;BME280;23099;42.636;23.198;2023-08-30T05:40:55;91261.16;;;17.29;100.00
37206;BME280;23099;42.636;23.198;2023-08-30T05:43:23;91261.56;;;17.28;100.00
37206;BME280;23099;42.636;23.198;2023-08-30T05:45:50;91256.66;;;17.23;100.00
37206;BME280;23099;42.636;23.198;2023-08-30T05:48:17;91264.38;;;17.41;100.00
37206;BME280;23099;42.636;23.198;2023-08-30T05:50:43;91255.25;;;17.51;100.00
37206;BME280;23099;42.636;23.198;2023-08-30T05:53:10;91259.59;;;17.64;100.00
37206;BME280;23099;42.636;23.198;2023-08-30T05:55:37;91256.97;;;17.77;100.00
37206;BME280;23099;42.636;23.198;2023-08-30T05:58:04;91262.81;;;17.92;100.00
37206;BME280;23099;42.636;23.198;2023-08-30T06:00:32;91266.34;;;18.05;100.00
37206;BME280;23099;42.636;23.198;2023-08-30T06:02:59;91266.84;;;18.16;100.00
37206;BME280;23099;42.636;23.198;2023-08-30T06:05:25;91265.13;;;18.22;100.00
37206;BME280;23099;42.636;23.198;2023-08-30T06:07:52;91254.75;;;18.21;100.00
37206;BME280;23099;42.636;23.198;2023-08-30T06:10:19;91258.81;;;18.29;100.00
37206;BME280;23099;42.636;23.198;2023-08-30T06:12:46;91260.97;;;18.34;100.00
37206;BME280;23099;42.636;23.198;2023-08-30T06:15:12;91256.91;;;18.42;100.00
37206;BME280;23099;42.636;23.198;2023-08-30T06:17:40;91272.00;;;18.56;100.00
37206;BME280;23099;42.636;23.198;2023-08-30T06:20:08;91270.78;;;18.60;100.00
37206;BME280;23099;42.636;23.198;2023-08-30T06:22:34;91269.13;;;18.63;96.44
37206;BME280;23099;42.636;23.198;2023-08-30T06:25:01;91276.31;;;18.69;93.46
37206;BME280;23099;42.636;23.198;2023-08-30T06:27:29;91275.16;;;18.83;93.97
37206;BME280;23099;42.636;23.198;2023-08-30T06:29:56;91273.22;;;18.84;92.40
37206;BME280;23099;42.636;23.198;2023-08-30T06:32:22;91272.06;;;18.97;92.89
37206;BME280;23099;42.636;23.198;2023-08-30T06:34:51;91275.78;;;19.03;90.40
37206;BME280;23099;42.636;23.198;2023-08-30T06:37:17;91270.47;;;19.13;90.31
37206;BME280;23099;42.636;23.198;2023-08-30T06:39:44;91272.53;;;19.21;90.09
37206;BME280;23099;42.636;23.198;2023-08-30T06:42:10;91276.47;;;19.33;87.97
37206;BME280;23099;42.636;23.198;2023-08-30T06:44:37;91281.66;;;19.40;87.95
37206;BME280;23099;42.636;23.198;2023-08-30T06:47:05;91280.69;;;19.34;87.94
37206;BME280;23099;42.636;23.198;2023-08-30T06:49:32;91274.84;;;19.48;87.63
37206;BME280;23099;42.636;23.198;2023-08-30T06:52:00;91271.63;;;19.53;88.43
37206;BME280;23099;42.636;23.198;2023-08-30T06:54:29;91273.56;;;19.65;88.08
37206;BME280;23099;42.636;23.198;2023-08-30T06:56:57;91270.44;;;19.67;88.68
37206;BME280;23099;42.636;23.198;2023-08-30T06:59:24;91268.03;;;19.82;88.90
37206;BME280;23099;42.636;23.198;2023-08-30T07:01:51;91272.03;;;19.77;88.33
37206;BME280;23099;42.636;23.198;2023-08-30T07:04:18;91266.41;;;19.84;87.35
37206;BME280;23099;42.636;23.198;2023-08-30T07:06:44;91266.94;;;19.92;87.31
37206;BME280;23099;42.636;23.198;2023-08-30T07:09:12;91277.47;;;19.90;84.75
37206;BME280;23099;42.636;23.198;2023-08-30T07:11:42;91268.44;;;19.93;80.88
37206;BME280;23099;42.636;23.198;2023-08-30T07:14:09;91277.03;;;20.04;80.14
37206;BME280;23099;42.636;23.198;2023-08-30T07:16:36;91275.16;;;20.13;78.71
37206;BME280;23099;42.636;23.198;2023-08-30T07:19:02;91284.13;;;20.23;76.94
37206;BME280;23099;42.636;23.198;2023-08-30T07:21:29;91275.91;;;20.27;76.35
37206;BME280;23099;42.636;23.198;2023-08-30T07:23:56;91286.97;;;20.32;73.70
37206;BME280;23099;42.636;23.198;2023-08-30T07:26:24;91277.91;;;20.35;75.98
37206;BME280;23099;42.636;23.198;2023-08-30T07:28:51;91291.41;;;20.39;75.29
37206;BME280;23099;42.636;23.198;2023-08-30T07:31:18;91279.47;;;20.36;77.39
37206;BME280;23099;42.636;23.198;2023-08-30T07:33:45;91299.00;;;20.44;79.58
37206;BME280;23099;42.636;23.198;2023-08-30T07:36:11;91285.19;;;20.51;80.26
37206;BME280;23099;42.636;23.198;2023-08-30T07:38:38;91283.75;;;20.59;81.55
37206;BME280;23099;42.636;23.198;2023-08-30T07:41:05;91278.06;;;20.66;75.76
37206;BME280;23099;42.636;23.198;2023-08-30T07:43:33;91284.91;;;20.71;75.34
37206;BME280;23099;42.636;23.198;2023-08-30T07:46:00;91284.25;;;20.67;77.54
37206;BME280;23099;42.636;23.198;2023-08-30T07:48:26;91282.75;;;20.66;77.27
37206;BME280;23099;42.636;23.198;2023-08-30T07:50:53;91279.72;;;20.64;75.03
37206;BME280;23099;42.636;23.198;2023-08-30T07:53:20;91293.25;;;20.76;73.59
37206;BME280;23099;42.636;23.198;2023-08-30T07:55:48;91291.03;;;20.84;73.96
37206;BME280;23099;42.636;23.198;2023-08-30T07:58:15;91295.91;;;20.89;75.77
37206;BME280;23099;42.636;23.198;2023-08-30T08:00:43;91303.69;;;21.00;74.14
37206;BME280;23099;42.636;23.198;2023-08-30T08:03:10;91293.78;;;21.06;72.53
37206;BME280;23099;42.636;23.198;2023-08-30T08:05:37;91302.75;;;21.15;71.97
37206;BME280;23099;42.636;23.198;2023-08-30T08:08:04;91298.28;;;21.22;69.47
37206;BME280;23099;42.636;23.198;2023-08-30T08:10:31;91295.88;;;21.24;66.19
37206;BME280;23099;42.636;23.198;2023-08-30T08:12:58;91304.88;;;21.33;67.57
37206;BME280;23099;42.636;23.198;2023-08-30T08:15:25;91311.50;;;21.32;65.89
37206;BME280;23099;42.636;23.198;2023-08-30T08:17:53;91307.44;;;21.37;68.26
37206;BME280;23099;42.636;23.198;2023-08-30T08:20:20;91311.22;;;21.39;68.06
37206;BME280;23099;42.636;23.198;2023-08-30T08:22:47;91318.97;;;21.50;70.55
37206;BME280;23099;42.636;23.198;2023-08-30T08:25:13;91313.84;;;21.52;69.83
37206;BME280;23099;42.636;23.198;2023-08-30T08:27:41;91325.13;;;21.63;67.37
37206;BME280;23099;42.636;23.198;2023-08-30T08:30:08;91321.69;;;21.72;67.46
37206;BME280;23099;42.636;23.198;2023-08-30T08:32:36;91321.06;;;21.68;64.47
37206;BME280;23099;42.636;23.198;2023-08-30T08:35:04;91316.69;;;21.70;67.24
37206;BME280;23099;42.636;23.198;2023-08-30T08:37:32;91314.75;;;21.80;65.75
37206;BME280;23099;42.636;23.198;2023-08-30T08:39:58;91317.03;;;21.81;66.94
37206;BME280;23099;42.636;23.198;2023-08-30T08:42:26;91320.56;;;21.91;67.27
37206;BME280;23099;42.636;23.198;2023-08-30T08:44:53;91320.69;;;21.87;65.56
37206;BME280;23099;42.636;23.198;2023-08-30T08:47:20;91316.47;;;21.86;65.86
37206;BME280;23099;42.636;23.198;2023-08-30T08:49:47;91317.47;;;22.02;65.58
37206;BME280;23099;42.636;23.198;2023-08-30T08:52:16;91315.97;;;22.10;64.82
37206;BME280;23099;42.636;23.198;2023-08-30T08:54:43;91301.66;;;22.18;65.28
37206;BME280;23099;42.636;23.198;2023-08-30T08:57:11;91307.22;;;22.24;65.65
37206;BME280;23099;42.636;23.198;2023-08-30T08:59:37;91312.09;;;22.29;65.32
37206;BME280;23099;42.636;23.198;2023-08-30T09:02:04;91308.94;;;22.31;65.61
37206;BME280;23099;42.636;23.198;2023-08-30T09:04:31;91302.75;;;22.39;66.33
37206;BME280;23099;42.636;23.198;2023-08-30T09:06:58;91310.47;;;22.41;64.58
37206;BME280;23099;42.636;23.198;2023-08-30T09:09:27;91305.31;;;22.43;65.77
37206;BME280;23099;42.636;23.198;2023-08-30T09:11:54;91296.88;;;22.50;65.15
37206;BME280;23099;42.636;23.198;2023-08-30T09:14:20;91293.09;;;22.56;64.16
37206;BME280;23099;42.636;23.198;2023-08-30T09:16:56;91294.16;;;22.68;63.33
37206;BME280;23099;42.636;23.198;2023-08-30T09:19:23;91291.03;;;22.79;62.58
37206;BME280;23099;42.636;23.198;2023-08-30T09:21:50;91291.47;;;22.86;60.54
37206;BME280;23099;42.636;23.198;2023-08-30T09:24:18;91293.28;;;22.99;60.20
37206;BME280;23099;42.636;23.198;2023-08-30T09:26:48;91283.44;;;23.10;60.13
37206;BME280;23099;42.636;23.198;2023-08-30T09:29:17;91291.00;;;23.24;60.35
37206;BME280;23099;42.636;23.198;2023-08-30T09:31:44;91291.88;;;23.40;58.36
37206;BME280;23099;42.636;23.198;2023-08-30T09:34:11;91286.13;;;23.47;57.90
37206;BME280;23099;42.636;23.198;2023-08-30T09:36:38;91291.88;;;23.49;56.82
37206;BME280;23099;42.636;23.198;2023-08-30T09:39:06;91281.31;;;23.51;57.82
37206;BME280;23099;42.636;23.198;2023-08-30T09:41:34;91287.03;;;23.62;58.14
37206;BME280;23099;42.636;23.198;2023-08-30T09:44:09;91290.47;;;23.72;58.65
37206;BME280;23099;42.636;23.198;2023-08-30T09:46:45;91292.91;;;23.79;58.26
37206;BME280;23099;42.636;23.198;2023-08-30T09:49:12;91282.44;;;23.77;57.69
37206;BME280;23099;42.636;23.198;2023-08-30T09:51:41;91281.78;;;23.82;58.45
37206;BME280;23099;42.636;23.198;2023-08-30T09:54:14;91281.53;;;23.80;57.11
37206;BME280;23099;42.636;23.198;2023-08-30T09:56:42;91273.13;;;23.93;57.37
37206;BME280;23099;42.636;23.198;2023-08-30T09:59:11;91272.63;;;24.04;56.57
37206;BME280;23099;42.636;23.198;2023-08-30T10:01:38;91272.72;;;24.18;52.97
37206;BME280;23099;42.636;23.198;2023-08-30T10:04:07;91273.28;;;24.31;50.32
37206;BME280;23099;42.636;23.198;2023-08-30T10:06:35;91275.47;;;24.42;48.94
37206;BME280;23099;42.636;23.198;2023-08-30T10:09:02;91277.41;;;24.51;47.22
37206;BME280;23099;42.636;23.198;2023-08-30T10:11:30;91270.13;;;24.72;48.34
37206;BME280;23099;42.636;23.198;2023-08-30T10:13:59;91268.66;;;24.85;46.72
37206;BME280;23099;42.636;23.198;2023-08-30T10:16:30;91270.81;;;25.05;45.77
37206;BME280;23099;42.636;23.198;2023-08-30T10:19:02;91267.19;;;25.23;46.92
37206;BME280;23099;42.636;23.198;2023-08-30T10:21:31;91269.44;;;25.24;46.47
37206;BME280;23099;42.636;23.198;2023-08-30T10:23:58;91277.09;;;25.35;45.80
37206;BME280;23099;42.636;23.198;2023-08-30T10:26:29;91260.78;;;25.70;46.44
37206;BME280;23099;42.636;23.198;2023-08-30T10:28:58;91260.78;;;25.70;46.54
37206;BME280;23099;42.636;23.198;2023-08-30T10:31:28;91260.69;;;25.50;45.10
37206;BME280;23099;42.636;23.198;2023-08-30T10:33:55;91268.47;;;25.27;45.45
37206;BME280;23099;42.636;23.198;2023-08-30T10:36:22;91257.63;;;25.04;44.28
37206;BME280;23099;42.636;23.198;2023-08-30T10:38:50;91257.16;;;24.81;45.30
37206;BME280;23099;42.636;23.198;2023-08-30T10:41:20;91263.38;;;24.82;46.99
37206;BME280;23099;42.636;23.198;2023-08-30T10:43:51;91254.06;;;24.88;45.14
37206;BME280;23099;42.636;23.198;2023-08-30T10:46:31;91252.16;;;25.18;45.16
37206;BME280;23099;42.636;23.198;2023-08-30T10:49:08;91254.19;;;25.62;42.43
37206;BME280;23099;42.636;23.198;2023-08-30T10:51:35;91251.56;;;25.67;42.25
37206;BME280;23099;42.636;23.198;2023-08-30T10:54:10;91251.63;;;25.44;42.39
37206;BME280;23099;42.636;23.198;2023-08-30T10:56:46;91251.63;;;25.88;42.40
37206;BME280;23099;42.636;23.198;2023-08-30T10:59:17;91245.31;;;26.31;40.00
37206;BME280;23099;42.636;23.198;2023-08-30T11:01:46;91246.31;;;26.69;39.76
37206;BME280;23099;42.636;23.198;2023-08-30T11:04:14;91248.78;;;27.07;39.28
37206;BME280;23099;42.636;23.198;2023-08-30T11:06:43;91253.59;;;27.38;37.13
37206;BME280;23099;42.636;23.198;2023-08-30T11:09:12;91235.19;;;27.44;35.78
37206;BME280;23099;42.636;23.198;2023-08-30T11:11:39;91249.00;;;27.30;34.87
37206;BME280;23099;42.636;23.198;2023-08-30T11:14:07;91249.00;;;27.04;33.93
37206;BME280;23099;42.636;23.198;2023-08-30T11:16:34;91241.25;;;27.28;32.68
37206;BME280;23099;42.636;23.198;2023-08-30T11:19:02;91245.25;;;27.27;31.05
37206;BME280;23099;42.636;23.198;2023-08-30T11:21:30;91237.72;;;27.48;33.42
37206;BME280;23099;42.636;23.198;2023-08-30T11:23:57;91238.34;;;27.89;34.20
37206;BME280;23099;42.636;23.198;2023-08-30T11:26:24;91233.53;;;28.10;32.72
37206;BME280;23099;42.636;23.198;2023-08-30T11:28:51;91232.59;;;28.19;31.50
37206;BME280;23099;42.636;23.198;2023-08-30T11:31:19;91223.22;;;28.36;32.52
37206;BME280;23099;42.636;23.198;2023-08-30T11:33:51;91220.34;;;28.62;31.12
37206;BME280;23099;42.636;23.198;2023-08-30T11:36:20;91220.47;;;28.79;30.73
37206;BME280;23099;42.636;23.198;2023-08-30T11:38:47;91230.00;;;28.83;31.82
37206;BME280;23099;42.636;23.198;2023-08-30T11:41:14;91217.09;;;29.12;30.85
37206;BME280;23099;42.636;23.198;2023-08-30T11:43:41;91214.34;;;29.17;30.71
37206;BME280;23099;42.636;23.198;2023-08-30T11:46:08;91207.09;;;29.26;29.67
37206;BME280;23099;42.636;23.198;2023-08-30T11:48:35;91212.94;;;29.50;30.40
37206;BME280;23099;42.636;23.198;2023-08-30T11:51:02;91209.66;;;29.40;29.68
37206;BME280;23099;42.636;23.198;2023-08-30T11:53:31;91209.69;;;29.57;30.89
37206;BME280;23099;42.636;23.198;2023-08-30T11:55:58;91217.19;;;29.73;29.47
37206;BME280;23099;42.636;23.198;2023-08-30T11:58:24;91217.72;;;29.72;29.21
37206;BME280;23099;42.636;23.198;2023-08-30T12:00:52;91200.69;;;29.90;27.59
37206;BME280;23099;42.636;23.198;2023-08-30T12:03:19;91221.19;;;29.72;28.62
37206;BME280;23099;42.636;23.198;2023-08-30T12:05:47;91207.19;;;29.53;28.94
37206;BME280;23099;42.636;23.198;2023-08-30T12:08:18;91200.91;;;29.47;29.17
37206;BME280;23099;42.636;23.198;2023-08-30T12:10:47;91192.91;;;29.38;26.38
37206;BME280;23099;42.636;23.198;2023-08-30T12:13:23;91189.09;;;29.36;28.41
37206;BME280;23099;42.636;23.198;2023-08-30T12:15:50;91193.91;;;29.46;28.56
37206;BME280;23099;42.636;23.198;2023-08-30T12:18:16;91197.34;;;29.30;26.03
37206;BME280;23099;42.636;23.198;2023-08-30T12:20:53;91201.34;;;29.24;25.25
37206;BME280;23099;42.636;23.198;2023-08-30T12:23:21;91192.56;;;29.08;25.48
37206;BME280;23099;42.636;23.198;2023-08-30T12:25:59;91189.56;;;29.12;25.25
37206;BME280;23099;42.636;23.198;2023-08-30T12:28:27;91193.78;;;29.02;26.98
37206;BME280;23099;42.636;23.198;2023-08-30T12:30:53;91196.72;;;28.87;26.70
37206;BME280;23099;42.636;23.198;2023-08-30T12:33:20;91179.47;;;28.81;26.32
37206;BME280;23099;42.636;23.198;2023-08-30T12:35:47;91187.97;;;28.83;26.47
37206;BME280;23099;42.636;23.198;2023-08-30T12:38:14;91171.00;;;28.84;26.38
37206;BME280;23099;42.636;23.198;2023-08-30T12:40:43;91174.22;;;28.89;26.19
37206;BME280;23099;42.636;23.198;2023-08-30T12:43:11;91184.00;;;29.01;26.49
37206;BME280;23099;42.636;23.198;2023-08-30T12:45:39;91180.03;;;28.96;27.05
37206;BME280;23099;42.636;23.198;2023-08-30T12:48:06;91174.22;;;28.83;26.47
37206;BME280;23099;42.636;23.198;2023-08-30T12:50:33;91179.63;;;28.72;26.85
37206;BME280;23099;42.636;23.198;2023-08-30T12:53:00;91183.38;;;28.63;27.07